Time,TemperatureF,DewpointF,PressureIn,WindDirection,WindDirectionDegrees,WindSpeedMPH,WindSpeedGustMPH,Humidity,HourlyPrecipIn,Conditions,Clouds,dailyrainin,SoftwareType,DateUTC
2014-10-21 00:14:00,48.9,46.4,29.97,WSW,247,0.0,-999.0,91,-99.99,,,0.00,Acu-Link.com,2014-10-21 04:14:00,
2014-10-21 00:29:00,49.1,46.6,29.97,SSW,202,0.0,-999.0,91,-99.99,,,0.00,Acu-Link.com,2014-10-21 04:29:00,
2014-10-21 00:44:00,49.5,47.0,29.96,SSW,202,0.0,-999.0,91,-99.99,,,0.00,Acu-Link.com,2014-10-21 04:44:00,
2014-10-21 00:59:00,49.5,47.0,29.96,SSW,202,0.0,-999.0,91,-99.99,,,0.00,Acu-Link.com,2014-10-21 04:59:00,
2014-10-21 01:14:00,49.8,47.3,29.97,North,0,0.0,-999.0,91,-99.99,,,0.00,Acu-Link.com,2014-10-21 05:14:00,
2014-10-21 01:30:00,50.5,48.0,29.96,NNE,22,0.0,-999.0,91,-99.99,,,0.00,Acu-Link.com,2014-10-21 05:30:00,
2014-10-21 01:45:00,50.5,48.0,29.96,NNE,22,0.0,-999.0,91,-99.99,,,0.00,Acu-Link.com,2014-10-21 05:45:00,
2014-10-21 02:00:00,50.9,48.4,29.96,NNE,22,0.0,-999.0,91,-99.99,,,0.00,Acu-Link.com,2014-10-21 06:00:00,
2014-10-21 02:15:00,50.9,48.4,29.95,NNE,22,0.0,-999.0,91,-99.99,,,0.00,Acu-Link.com,2014-10-21 06:15:00,
2014-10-21 02:30:00,51.3,48.8,29.95,NNE,22,0.0,-999.0,91,-99.99,,,0.00,Acu-Link.com,2014-10-21 06:30:00,
2014-10-21 02:45:00,51.3,48.8,29.94,NNE,22,0.0,-999.0,91,-99.99,,,0.00,Acu-Link.com,2014-10-21 06:45:00,
2014-10-21 03:00:00,51.8,49.3,29.94,ENE,67,0.0,-999.0,91,-99.99,,,0.00,Acu-Link.com,2014-10-21 07:00:00,
2014-10-21 03:15:00,52.0,49.5,29.93,NE,45,0.0,-999.0,91,-99.99,,,0.00,Acu-Link.com,2014-10-21 07:15:00,
2014-10-21 03:30:00,52.0,49.5,29.92,NE,45,0.0,-999.0,91,-99.99,,,0.00,Acu-Link.com,2014-10-21 07:30:00,
2014-10-21 03:46:00,52.0,49.5,29.92,SSW,202,0.0,-999.0,91,-99.99,,,0.00,Acu-Link.com,2014-10-21 07:46:00,
2014-10-21 04:01:00,51.8,49.3,29.91,South,180,0.0,-999.0,91,-99.99,,,0.00,Acu-Link.com,2014-10-21 08:01:00,
2014-10-21 04:16:00,51.6,49.1,29.91,West,270,0.0,-999.0,91,-99.99,,,0.00,Acu-Link.com,2014-10-21 08:16:00,
2014-10-21 04:31:00,51.4,48.9,29.91,SSW,202,0.0,-999.0,91,-99.99,,,0.00,Acu-Link.com,2014-10-21 08:31:00,
2014-10-21 04:46:00,51.3,48.8,29.91,South,180,0.0,-999.0,91,-99.99,,,0.00,Acu-Link.com,2014-10-21 08:46:00,
2014-10-21 05:01:00,51.1,48.6,29.91,South,180,0.0,-999.0,91,-99.99,,,0.00,Acu-Link.com,2014-10-21 09:01:00,
2014-10-21 05:17:00,50.5,48.0,29.91,South,180,0.0,-999.0,91,-99.99,,,0.00,Acu-Link.com,2014-10-21 09:17:00,
2014-10-21 05:32:00,50.0,47.5,29.91,North,0,0.0,-999.0,91,-99.99,,,0.00,Acu-Link.com,2014-10-21 09:32:00,
2014-10-21 05:47:00,49.5,47.0,29.91,SSE,157,0.0,-999.0,91,-99.99,,,0.00,Acu-Link.com,2014-10-21 09:47:00,
2014-10-21 06:02:00,48.9,46.4,29.91,South,180,0.0,-999.0,91,-99.99,,,0.00,Acu-Link.com,2014-10-21 10:02:00,
2014-10-21 06:17:00,48.6,46.1,29.92,WSW,247,0.0,-999.0,91,-99.99,,,0.00,Acu-Link.com,2014-10-21 10:17:00,
2014-10-21 06:32:00,48.0,45.5,29.91,SSE,157,0.0,-999.0,91,-99.99,,,0.00,Acu-Link.com,2014-10-21 10:32:00,
2014-10-21 06:47:00,47.7,45.2,29.91,South,180,0.0,-999.0,91,-99.99,,,0.00,Acu-Link.com,2014-10-21 10:47:00,
2014-10-21 07:02:00,47.3,44.8,29.92,SSW,202,0.0,-999.0,91,-99.99,,,0.00,Acu-Link.com,2014-10-21 11:02:00,
2014-10-21 07:17:00,46.9,44.4,29.92,SSW,202,0.0,-999.0,91,-99.99,,,0.00,Acu-Link.com,2014-10-21 11:17:00,
2014-10-21 07:33:00,46.6,44.1,29.92,South,180,0.0,-999.0,91,-99.99,,,0.00,Acu-Link.com,2014-10-21 11:33:00,
2014-10-21 07:48:00,46.4,43.9,29.92,SSW,202,0.0,-999.0,91,-99.99,,,0.00,Acu-Link.com,2014-10-21 11:48:00,
2014-10-21 08:03:00,46.6,44.1,29.92,SSW,202,0.0,-999.0,91,-99.99,,,0.00,Acu-Link.com,2014-10-21 12:03:00,
2014-10-21 08:18:00,46.6,44.1,29.92,SW,225,0.0,-999.0,91,-99.99,,,0.00,Acu-Link.com,2014-10-21 12:18:00,
2014-10-21 08:33:00,47.3,45.1,29.93,South,180,0.0,-999.0,92,-99.99,,,0.00,Acu-Link.com,2014-10-21 12:33:00,
2014-10-21 08:48:00,47.7,45.5,29.94,NE,45,0.0,-999.0,92,-99.99,,,0.00,Acu-Link.com,2014-10-21 12:48:00,
2014-10-21 09:03:00,48.9,46.7,29.93,NE,45,0.0,-999.0,92,-99.99,,,0.00,Acu-Link.com,2014-10-21 13:03:00,
2014-10-21 09:18:00,51.1,48.9,29.93,WNW,292,0.0,-999.0,92,-99.99,,,0.00,Acu-Link.com,2014-10-21 13:18:00,
2014-10-21 09:33:00,53.2,51.2,29.93,West,270,0.0,-999.0,93,-99.99,,,0.00,Acu-Link.com,2014-10-21 13:33:00,
2014-10-21 09:48:00,56.3,54.3,29.93,WSW,247,0.0,-999.0,93,-99.99,,,0.00,Acu-Link.com,2014-10-21 13:48:00,
2014-10-21 10:04:00,62.2,56.0,29.93,ESE,112,2.7,-999.0,80,-99.99,,,0.00,Acu-Link.com,2014-10-21 14:04:00,
2014-10-21 10:19:00,66.7,56.6,29.93,SW,225,3.2,-999.0,70,-99.99,,,0.00,Acu-Link.com,2014-10-21 14:19:00,
2014-10-21 10:34:00,69.1,56.4,29.93,NW,315,3.7,-999.0,64,-99.99,,,0.00,Acu-Link.com,2014-10-21 14:34:00,
2014-10-21 10:49:00,70.3,57.1,29.92,WSW,247,0.0,-999.0,63,-99.99,,,0.00,Acu-Link.com,2014-10-21 14:49:00,
2014-10-21 11:04:00,73.9,56.2,29.92,NNE,22,0.0,-999.0,54,-99.99,,,0.00,Acu-Link.com,2014-10-21 15:04:00,
2014-10-21 11:19:00,72.5,54.9,29.91,NNW,337,1.7,-999.0,54,-99.99,,,0.00,Acu-Link.com,2014-10-21 15:19:00,
2014-10-21 11:35:00,70.7,54.7,29.91,WSW,247,1.1,-999.0,57,-99.99,,,0.00,Acu-Link.com,2014-10-21 15:35:00,
2014-10-21 11:50:00,73.2,54.5,29.90,SSW,202,1.1,-999.0,52,-99.99,,,0.00,Acu-Link.com,2014-10-21 15:50:00,
2014-10-21 12:05:00,74.8,53.2,29.90,NNE,22,2.7,-999.0,47,-99.99,,,0.00,Acu-Link.com,2014-10-21 16:05:00,
2014-10-21 12:20:00,75.7,52.2,29.89,NNW,337,5.3,-999.0,44,-99.99,,,0.00,Acu-Link.com,2014-10-21 16:20:00,
2014-10-21 12:35:00,75.0,54.0,29.89,West,270,1.1,-999.0,48,-99.99,,,0.00,Acu-Link.com,2014-10-21 16:35:00,
2014-10-21 12:50:00,75.7,54.0,29.89,ESE,112,1.7,-999.0,47,-99.99,,,0.00,Acu-Link.com,2014-10-21 16:50:00,